sensor_id;sensor_type;location;lat;lon;timestamp;pressure;altitude;pressure_sealevel;temperature;humidity
80682;BME280;70045;40.200;44.582;2023-10-08T00:01:20;86794.34;;;12.60;44.91
80682;BME280;70045;40.200;44.582;2023-10-08T00:03:46;86796.19;;;12.43;45.08
80682;BME280;70045;40.200;44.582;2023-10-08T00:06:17;86792.56;;;12.37;45.54
80682;BME280;70045;40.200;44.582;2023-10-08T00:08:42;86795.63;;;12.32;46.45
80682;BME280;70045;40.200;44.582;2023-10-08T00:11:08;86796.28;;;12.36;45.13
80682;BME280;70045;40.200;44.582;2023-10-08T00:13:34;86797.97;;;12.26;46.05
80682;BME280;70045;40.200;44.582;2023-10-08T00:15:59;86800.69;;;12.19;46.24
80682;BME280;70045;40.200;44.582;2023-10-08T00:18:29;86806.22;;;12.21;46.61
80682;BME280;70045;40.200;44.582;2023-10-08T00:20:54;86798.03;;;12.22;45.34
80682;BME280;70045;40.200;44.582;2023-10-08T00:23:19;86796.56;;;12.21;46.23
80682;BME280;70045;40.200;44.582;2023-10-08T00:25:45;86803.22;;;12.22;45.41
80682;BME280;70045;40.200;44.582;2023-10-08T00:28:10;86798.03;;;12.22;45.65
80682;BME280;70045;40.200;44.582;2023-10-08T00:30:39;86792.91;;;12.19;46.36
80682;BME280;70045;40.200;44.582;2023-10-08T00:33:05;86803.22;;;12.22;45.06
80682;BME280;70045;40.200;44.582;2023-10-08T00:35:30;86799.28;;;12.14;46.84
80682;BME280;70045;40.200;44.582;2023-10-08T00:37:56;86782.13;;;11.97;46.35
80682;BME280;70045;40.200;44.582;2023-10-08T00:40:21;86797.94;;;12.06;46.46
80682;BME280;70045;40.200;44.582;2023-10-08T00:42:49;86799.09;;;12.05;46.73
80682;BME280;70045;40.200;44.582;2023-10-08T00:45:15;86793.31;;;11.94;47.45
80682;BME280;70045;40.200;44.582;2023-10-08T00:47:40;86791.88;;;11.93;46.63
80682;BME280;70045;40.200;44.582;2023-10-08T00:50:06;86792.13;;;11.98;46.08
80682;BME280;70045;40.200;44.582;2023-10-08T00:52:32;86801.31;;;12.03;46.42
80682;BME280;70045;40.200;44.582;2023-10-08T00:55:01;86798.53;;;11.94;47.00
80682;BME280;70045;40.200;44.582;2023-10-08T00:57:28;86793.31;;;11.94;46.15
80682;BME280;70045;40.200;44.582;2023-10-08T00:59:53;86793.31;;;11.94;46.20
80682;BME280;70045;40.200;44.582;2023-10-08T01:02:26;86795.59;;;11.92;47.03
80682;BME280;70045;40.200;44.582;2023-10-08T01:04:52;86795.59;;;11.92;46.34
80682;BME280;70045;40.200;44.582;2023-10-08T01:07:24;86784.50;;;11.87;47.22
80682;BME280;70045;40.200;44.582;2023-10-08T01:09:50;86788.91;;;11.91;46.60
80682;BME280;70045;40.200;44.582;2023-10-08T01:12:21;86796.72;;;11.91;47.26
80682;BME280;70045;40.200;44.582;2023-10-08T01:14:47;86796.75;;;11.87;46.59
80682;BME280;70045;40.200;44.582;2023-10-08T01:17:13;86792.06;;;11.78;47.30
80682;BME280;70045;40.200;44.582;2023-10-08T01:19:43;86796.25;;;11.72;48.23
80682;BME280;70045;40.200;44.582;2023-10-08T01:22:08;86790.03;;;11.66;47.45
80682;BME280;70045;40.200;44.582;2023-10-08T01:24:33;86789.72;;;11.64;48.07
80682;BME280;70045;40.200;44.582;2023-10-08T01:26:59;86793.09;;;11.61;48.13
80682;BME280;70045;40.200;44.582;2023-10-08T01:29:24;86784.28;;;11.55;47.41
80682;BME280;70045;40.200;44.582;2023-10-08T01:31:56;86789.50;;;11.55;48.47
80682;BME280;70045;40.200;44.582;2023-10-08T01:34:21;86777.75;;;11.46;47.82
80682;BME280;70045;40.200;44.582;2023-10-08T01:36:46;86787.34;;;11.49;47.75
80682;BME280;70045;40.200;44.582;2023-10-08T01:39:12;86783.00;;;11.43;47.82
80682;BME280;70045;40.200;44.582;2023-10-08T01:41:37;86792.66;;;11.42;48.61
80682;BME280;70045;40.200;44.582;2023-10-08T01:44:05;86789.69;;;11.40;48.49
80682;BME280;70045;40.200;44.582;2023-10-08T01:46:31;86790.06;;;11.42;48.62
80682;BME280;70045;40.200;44.582;2023-10-08T01:48:56;86789.63;;;11.44;49.10
80682;BME280;70045;40.200;44.582;2023-10-08T01:51:22;86787.09;;;11.40;47.66
80682;BME280;70045;40.200;44.582;2023-10-08T01:53:47;86777.13;;;11.39;47.97
80682;BME280;70045;40.200;44.582;2023-10-08T01:56:19;86782.31;;;11.39;47.97
80682;BME280;70045;40.200;44.582;2023-10-08T01:58:45;86775.69;;;11.34;47.55
80682;BME280;70045;40.200;44.582;2023-10-08T02:01:10;86775.25;;;11.39;47.53
80682;BME280;70045;40.200;44.582;2023-10-08T02:03:35;86769.44;;;11.55;47.18
80682;BME280;70045;40.200;44.582;2023-10-08T02:06:03;86767.34;;;11.70;46.71
80682;BME280;70045;40.200;44.582;2023-10-08T02:08:34;86745.75;;;11.73;47.00
80682;BME280;70045;40.200;44.582;2023-10-08T02:10:59;86763.28;;;11.93;46.83
80682;BME280;70045;40.200;44.582;2023-10-08T02:13:24;86766.44;;;12.04;46.18
80682;BME280;70045;40.200;44.582;2023-10-08T02:15:50;86765.50;;;12.14;46.37
80682;BME280;70045;40.200;44.582;2023-10-08T02:18:16;86760.97;;;12.18;45.81
80682;BME280;70045;40.200;44.582;2023-10-08T02:20:47;86763.78;;;12.28;45.86
80682;BME280;70045;40.200;44.582;2023-10-08T02:23:13;86763.72;;;12.31;45.84
80682;BME280;70045;40.200;44.582;2023-10-08T02:25:39;86766.56;;;12.37;45.58
80682;BME280;70045;40.200;44.582;2023-10-08T02:28:05;86772.34;;;12.44;44.94
80682;BME280;70045;40.200;44.582;2023-10-08T02:30:30;86764.56;;;12.44;45.37
80682;BME280;70045;40.200;44.582;2023-10-08T02:33:05;86769.22;;;12.53;45.13
80682;BME280;70045;40.200;44.582;2023-10-08T02:35:31;86766.63;;;12.53;45.39
80682;BME280;70045;40.200;44.582;2023-10-08T02:37:56;86762.91;;;12.54;45.22
80682;BME280;70045;40.200;44.582;2023-10-08T02:40:21;86755.97;;;12.48;45.41
80682;BME280;70045;40.200;44.582;2023-10-08T02:42:48;86767.38;;;12.54;45.46
80682;BME280;70045;40.200;44.582;2023-10-08T02:45:20;86769.91;;;12.57;45.08
80682;BME280;70045;40.200;44.582;2023-10-08T02:47:46;86772.97;;;12.52;45.30
80682;BME280;70045;40.200;44.582;2023-10-08T02:50:12;86761.41;;;12.53;45.14
80682;BME280;70045;40.200;44.582;2023-10-08T02:52:37;86766.97;;;12.55;45.24
80682;BME280;70045;40.200;44.582;2023-10-08T02:55:03;86766.63;;;12.53;45.32
80682;BME280;70045;40.200;44.582;2023-10-08T02:57:37;86771.34;;;12.58;45.57
80682;BME280;70045;40.200;44.582;2023-10-08T03:00:03;86766.56;;;12.57;44.95
80682;BME280;70045;40.200;44.582;2023-10-08T03:02:28;86759.50;;;12.57;44.50
80682;BME280;70045;40.200;44.582;2023-10-08T03:04:54;86765.34;;;12.61;44.93
80682;BME280;70045;40.200;44.582;2023-10-08T03:07:20;86772.69;;;12.67;45.11
80682;BME280;70045;40.200;44.582;2023-10-08T03:09:52;86770.06;;;12.67;44.91
80682;BME280;70045;40.200;44.582;2023-10-08T03:12:18;86770.06;;;12.67;44.64
80682;BME280;70045;40.200;44.582;2023-10-08T03:14:44;86768.88;;;12.71;44.57
80682;BME280;70045;40.200;44.582;2023-10-08T03:17:09;86767.00;;;12.72;44.85
80682;BME280;70045;40.200;44.582;2023-10-08T03:19:34;86768.81;;;12.75;44.64
80682;BME280;70045;40.200;44.582;2023-10-08T03:22:03;86778.09;;;12.76;44.65
80682;BME280;70045;40.200;44.582;2023-10-08T03:24:28;86771.72;;;12.77;44.34
80682;BME280;70045;40.200;44.582;2023-10-08T03:26:54;86780.34;;;12.74;44.88
80682;BME280;70045;40.200;44.582;2023-10-08T03:29:19;86789.28;;;12.73;45.15
80682;BME280;70045;40.200;44.582;2023-10-08T03:31:44;86781.50;;;12.73;44.86
80682;BME280;70045;40.200;44.582;2023-10-08T03:34:17;86782.13;;;12.77;44.86
80682;BME280;70045;40.200;44.582;2023-10-08T03:36:44;86785.81;;;12.79;44.56
80682;BME280;70045;40.200;44.582;2023-10-08T03:39:10;86783.69;;;12.74;45.81
80682;BME280;70045;40.200;44.582;2023-10-08T03:41:36;86794.16;;;12.71;45.67
80682;BME280;70045;40.200;44.582;2023-10-08T03:44:01;86782.94;;;12.74;45.24
80682;BME280;70045;40.200;44.582;2023-10-08T03:46:31;86791.75;;;12.80;45.21
80682;BME280;70045;40.200;44.582;2023-10-08T03:48:57;86787.53;;;12.86;45.24
80682;BME280;70045;40.200;44.582;2023-10-08T03:51:24;86783.41;;;12.89;44.87
80682;BME280;70045;40.200;44.582;2023-10-08T03:53:49;86795.78;;;13.01;44.96
80682;BME280;70045;40.200;44.582;2023-10-08T03:56:14;86797.50;;;13.08;44.58
80682;BME280;70045;40.200;44.582;2023-10-08T03:58:43;86798.06;;;13.15;44.74
80682;BME280;70045;40.200;44.582;2023-10-08T04:01:08;86805.72;;;13.23;44.59
80682;BME280;70045;40.200;44.582;2023-10-08T04:03:35;86806.31;;;13.30;44.30
80682;BME280;70045;40.200;44.582;2023-10-08T04:06:01;86802.94;;;13.33;44.58
80682;BME280;70045;40.200;44.582;2023-10-08T04:08:26;86805.56;;;13.33;44.79
80682;BME280;70045;40.200;44.582;2023-10-08T04:10:58;86805.88;;;13.35;45.14
80682;BME280;70045;40.200;44.582;2023-10-08T04:13:23;86809.44;;;13.42;44.51
80682;BME280;70045;40.200;44.582;2023-10-08T04:15:49;86806.72;;;13.49;44.51
80682;BME280;70045;40.200;44.582;2023-10-08T04:18:14;86809.47;;;13.58;44.27
80682;BME280;70045;40.200;44.582;2023-10-08T04:20:39;86812.22;;;13.67;43.82
80682;BME280;70045;40.200;44.582;2023-10-08T04:23:09;86804.25;;;13.74;43.59
80682;BME280;70045;40.200;44.582;2023-10-08T04:25:34;86813.19;;;13.90;43.72
80682;BME280;70045;40.200;44.582;2023-10-08T04:28:01;86816.28;;;14.01;42.93
80682;BME280;70045;40.200;44.582;2023-10-08T04:30:28;86822.94;;;14.19;42.69
80682;BME280;70045;40.200;44.582;2023-10-08T04:32:57;86811.22;;;14.27;42.38
80682;BME280;70045;40.200;44.582;2023-10-08T04:35:25;86819.41;;;14.42;42.44
80682;BME280;70045;40.200;44.582;2023-10-08T04:37:50;86819.13;;;14.53;42.08
80682;BME280;70045;40.200;44.582;2023-10-08T04:40:15;86815.84;;;14.65;42.20
80682;BME280;70045;40.200;44.582;2023-10-08T04:42:41;86820.03;;;14.75;42.17
80682;BME280;70045;40.200;44.582;2023-10-08T04:45:07;86816.09;;;14.83;41.42
80682;BME280;70045;40.200;44.582;2023-10-08T04:47:36;86823.66;;;14.94;41.13
80682;BME280;70045;40.200;44.582;2023-10-08T04:50:01;86829.94;;;14.97;40.87
80682;BME280;70045;40.200;44.582;2023-10-08T04:52:26;86826.50;;;15.00;40.90
80682;BME280;70045;40.200;44.582;2023-10-08T04:54:52;86821.59;;;15.02;40.90
80682;BME280;70045;40.200;44.582;2023-10-08T04:57:18;86825.34;;;15.01;40.80
80682;BME280;70045;40.200;44.582;2023-10-08T04:59:47;86818.13;;;15.05;41.37
80682;BME280;70045;40.200;44.582;2023-10-08T05:02:12;86826.91;;;15.11;40.96
80682;BME280;70045;40.200;44.582;2023-10-08T05:04:38;86817.84;;;15.16;40.78
80682;BME280;70045;40.200;44.582;2023-10-08T05:07:04;86821.69;;;15.24;40.55
80682;BME280;70045;40.200;44.582;2023-10-08T05:09:29;86821.63;;;15.28;40.27
80682;BME280;70045;40.200;44.582;2023-10-08T05:11:59;86812.53;;;15.32;39.65
80682;BME280;70045;40.200;44.582;2023-10-08T05:14:24;86821.94;;;15.42;39.79
80682;BME280;70045;40.200;44.582;2023-10-08T05:16:50;86817.78;;;15.45;40.16
80682;BME280;70045;40.200;44.582;2023-10-08T05:19:15;86819.66;;;15.57;39.91
80682;BME280;70045;40.200;44.582;2023-10-08T05:21:40;86814.22;;;15.65;39.13
80682;BME280;70045;40.200;44.582;2023-10-08T05:24:09;86814.50;;;15.67;38.99
80682;BME280;70045;40.200;44.582;2023-10-08T05:26:38;86815.13;;;15.71;39.25
80682;BME280;70045;40.200;44.582;2023-10-08T05:29:03;86810.47;;;15.78;39.39
80682;BME280;70045;40.200;44.582;2023-10-08T05:31:29;86818.28;;;15.91;39.35
80682;BME280;70045;40.200;44.582;2023-10-08T05:33:54;86814.59;;;16.02;38.27
80682;BME280;70045;40.200;44.582;2023-10-08T05:36:22;86817.28;;;16.11;38.87
80682;BME280;70045;40.200;44.582;2023-10-08T05:38:48;86813.22;;;16.10;38.53
80682;BME280;70045;40.200;44.582;2023-10-08T05:41:13;86817.28;;;16.11;38.21
80682;BME280;70045;40.200;44.582;2023-10-08T05:43:39;86804.34;;;16.07;38.24
80682;BME280;70045;40.200;44.582;2023-10-08T05:46:04;86808.19;;;16.15;38.44
80682;BME280;70045;40.200;44.582;2023-10-08T05:48:33;86807.72;;;16.30;38.08
80682;BME280;70045;40.200;44.582;2023-10-08T05:51:06;86804.78;;;16.41;37.27
80682;BME280;70045;40.200;44.582;2023-10-08T05:53:32;86802.47;;;16.43;37.55
80682;BME280;70045;40.200;44.582;2023-10-08T05:56:04;86802.13;;;16.53;37.60
80682;BME280;70045;40.200;44.582;2023-10-08T05:58:32;86779.22;;;16.45;37.31
80682;BME280;70045;40.200;44.582;2023-10-08T06:01:02;86806.25;;;16.64;37.22
80682;BME280;70045;40.200;44.582;2023-10-08T06:03:27;86803.66;;;16.64;36.34
80682;BME280;70045;40.200;44.582;2023-10-08T06:05:52;86799.69;;;16.59;37.47
80682;BME280;70045;40.200;44.582;2023-10-08T06:08:18;86796.81;;;16.66;37.40
80682;BME280;70045;40.200;44.582;2023-10-08T06:10:43;86796.59;;;16.73;37.42
80682;BME280;70045;40.200;44.582;2023-10-08T06:13:15;86799.28;;;16.83;37.13
80682;BME280;70045;40.200;44.582;2023-10-08T06:15:50;86803.25;;;16.87;36.54
80682;BME280;70045;40.200;44.582;2023-10-08T06:18:20;86809.41;;;16.93;36.92
80682;BME280;70045;40.200;44.582;2023-10-08T06:20:46;86799.66;;;16.94;36.83
80682;BME280;70045;40.200;44.582;2023-10-08T06:23:12;86792.41;;;16.98;37.18
80682;BME280;70045;40.200;44.582;2023-10-08T06:25:47;86792.41;;;16.98;36.91
80682;BME280;70045;40.200;44.582;2023-10-08T06:28:17;86785.69;;;16.97;37.27
80682;BME280;70045;40.200;44.582;2023-10-08T06:30:42;86787.47;;;17.00;37.33
80682;BME280;70045;40.200;44.582;2023-10-08T06:33:09;86790.25;;;17.06;37.12
80682;BME280;70045;40.200;44.582;2023-10-08T06:35:35;86783.13;;;17.06;37.16
80682;BME280;70045;40.200;44.582;2023-10-08T06:38:10;86786.09;;;17.18;36.46
80682;BME280;70045;40.200;44.582;2023-10-08T06:40:37;86782.63;;;17.21;37.13
80682;BME280;70045;40.200;44.582;2023-10-08T06:43:03;86774.94;;;17.26;37.05
80682;BME280;70045;40.200;44.582;2023-10-08T06:45:29;86772.34;;;17.36;36.89
80682;BME280;70045;40.200;44.582;2023-10-08T06:47:55;86777.09;;;17.50;36.84
80682;BME280;70045;40.200;44.582;2023-10-08T06:50:27;86779.59;;;17.63;36.75
80682;BME280;70045;40.200;44.582;2023-10-08T06:52:52;86775.41;;;17.65;36.59
80682;BME280;70045;40.200;44.582;2023-10-08T06:55:18;86766.81;;;17.74;36.20
80682;BME280;70045;40.200;44.582;2023-10-08T06:57:43;86760.53;;;17.72;36.49
80682;BME280;70045;40.200;44.582;2023-10-08T07:00:09;86761.41;;;17.68;36.30
80682;BME280;70045;40.200;44.582;2023-10-08T07:02:40;86770.31;;;17.71;36.44
80682;BME280;70045;40.200;44.582;2023-10-08T07:05:06;86760.25;;;17.79;36.18
80682;BME280;70045;40.200;44.582;2023-10-08T07:07:31;86760.13;;;17.82;35.98
80682;BME280;70045;40.200;44.582;2023-10-08T07:09:57;86757.84;;;17.94;35.53
80682;BME280;70045;40.200;44.582;2023-10-08T07:12:22;86753.34;;;18.03;36.00
80682;BME280;70045;40.200;44.582;2023-10-08T07:14:54;86744.31;;;18.14;35.12
80682;BME280;70045;40.200;44.582;2023-10-08T07:17:19;86757.75;;;18.16;35.29
80682;BME280;70045;40.200;44.582;2023-10-08T07:19:45;86741.25;;;18.15;35.33
80682;BME280;70045;40.200;44.582;2023-10-08T07:22:10;86744.78;;;18.21;34.90
80682;BME280;70045;40.200;44.582;2023-10-08T07:24:37;86751.91;;;18.21;34.66
80682;BME280;70045;40.200;44.582;2023-10-08T07:27:08;86744.78;;;18.21;35.54
80682;BME280;70045;40.200;44.582;2023-10-08T07:29:35;86748.88;;;18.32;35.87
80682;BME280;70045;40.200;44.582;2023-10-08T07:32:00;86753.22;;;18.35;35.68
80682;BME280;70045;40.200;44.582;2023-10-08T07:34:26;86748.56;;;18.39;35.99
80682;BME280;70045;40.200;44.582;2023-10-08T07:36:53;86741.56;;;18.36;35.83
80682;BME280;70045;40.200;44.582;2023-10-08T07:39:22;86746.81;;;18.36;35.78
80682;BME280;70045;40.200;44.582;2023-10-08T07:41:49;86744.47;;;18.38;36.30
80682;BME280;70045;40.200;44.582;2023-10-08T07:44:14;86743.19;;;18.42;36.40
80682;BME280;70045;40.200;44.582;2023-10-08T07:46:40;86740.97;;;18.50;36.32
80682;BME280;70045;40.200;44.582;2023-10-08T07:49:05;86744.34;;;18.51;36.29
80682;BME280;70045;40.200;44.582;2023-10-08T07:51:33;86742.16;;;18.58;36.00
80682;BME280;70045;40.200;44.582;2023-10-08T07:53:59;86737.03;;;18.55;36.33
80682;BME280;70045;40.200;44.582;2023-10-08T07:56:25;86737.34;;;18.57;36.28
80682;BME280;70045;40.200;44.582;2023-10-08T07:58:51;86736.59;;;18.66;36.47
80682;BME280;70045;40.200;44.582;2023-10-08T08:01:17;86736.91;;;18.86;36.32
80682;BME280;70045;40.200;44.582;2023-10-08T08:03:46;86732.19;;;19.09;35.66
80682;BME280;70045;40.200;44.582;2023-10-08T08:06:11;86731.34;;;19.79;34.85
80682;BME280;70045;40.200;44.582;2023-10-08T08:08:37;86729.06;;;20.44;33.71
80682;BME280;70045;40.200;44.582;2023-10-08T08:11:04;86723.25;;;21.38;32.99
80682;BME280;70045;40.200;44.582;2023-10-08T08:13:29;86729.81;;;21.93;31.63
80682;BME280;70045;40.200;44.582;2023-10-08T08:16:01;86723.25;;;22.24;30.82
80682;BME280;70045;40.200;44.582;2023-10-08T08:18:27;86709.00;;;22.78;30.16
80682;BME280;70045;40.200;44.582;2023-10-08T08:20:55;86717.69;;;22.02;31.14
80682;BME280;70045;40.200;44.582;2023-10-08T08:23:20;86717.72;;;21.51;31.75
80682;BME280;70045;40.200;44.582;2023-10-08T08:25:46;86711.25;;;22.64;31.00
80682;BME280;70045;40.200;44.582;2023-10-08T08:28:12;86705.84;;;23.90;29.52
80682;BME280;70045;40.200;44.582;2023-10-08T08:30:37;86697.91;;;24.98;27.20
80682;BME280;70045;40.200;44.582;2023-10-08T08:33:07;86698.44;;;25.48;25.79
80682;BME280;70045;40.200;44.582;2023-10-08T08:35:32;86693.09;;;26.16;24.58
80682;BME280;70045;40.200;44.582;2023-10-08T08:37:58;86691.34;;;26.46;25.65
80682;BME280;70045;40.200;44.582;2023-10-08T08:40:23;86687.47;;;27.06;25.08
80682;BME280;70045;40.200;44.582;2023-10-08T08:42:50;86680.28;;;27.37;23.35
80682;BME280;70045;40.200;44.582;2023-10-08T08:45:23;86678.84;;;27.72;23.27
80682;BME280;70045;40.200;44.582;2023-10-08T08:47:48;86677.69;;;27.97;23.17
80682;BME280;70045;40.200;44.582;2023-10-08T08:50:14;86673.47;;;28.32;23.81
80682;BME280;70045;40.200;44.582;2023-10-08T08:52:40;86670.63;;;28.49;23.63
80682;BME280;70045;40.200;44.582;2023-10-08T08:55:09;86669.22;;;28.67;21.93
80682;BME280;70045;40.200;44.582;2023-10-08T08:57:46;86660.16;;;28.95;22.70
80682;BME280;70045;40.200;44.582;2023-10-08T09:00:13;86660.88;;;29.34;22.60
80682;BME280;70045;40.200;44.582;2023-10-08T09:02:39;86664.47;;;29.55;21.94
80682;BME280;70045;40.200;44.582;2023-10-08T09:05:05;86656.47;;;29.55;21.87
80682;BME280;70045;40.200;44.582;2023-10-08T09:07:30;86660.78;;;29.91;21.56
80682;BME280;70045;40.200;44.582;2023-10-08T09:10:02;86654.06;;;30.16;20.16
80682;BME280;70045;40.200;44.582;2023-10-08T09:12:28;86668.47;;;30.27;20.52
80682;BME280;70045;40.200;44.582;2023-10-08T09:15:00;86649.78;;;29.94;19.96
80682;BME280;70045;40.200;44.582;2023-10-08T09:17:26;86652.41;;;30.00;20.45
80682;BME280;70045;40.200;44.582;2023-10-08T09:19:53;86648.09;;;30.23;19.40
80682;BME280;70045;40.200;44.582;2023-10-08T09:22:21;86642.75;;;30.77;20.31
80682;BME280;70045;40.200;44.582;2023-10-08T09:24:48;86640.91;;;31.33;19.57
80682;BME280;70045;40.200;44.582;2023-10-08T09:27:14;86621.13;;;31.36;19.12
80682;BME280;70045;40.200;44.582;2023-10-08T09:29:40;86636.53;;;31.57;19.39
80682;BME280;70045;40.200;44.582;2023-10-08T09:32:10;86629.72;;;31.77;17.65
80682;BME280;70045;40.200;44.582;2023-10-08T09:34:39;86624.28;;;31.90;18.46
80682;BME280;70045;40.200;44.582;2023-10-08T09:37:05;86623.69;;;32.26;18.54
80682;BME280;70045;40.200;44.582;2023-10-08T09:39:31;86623.41;;;32.08;17.89
80682;BME280;70045;40.200;44.582;2023-10-08T09:41:57;86604.25;;;32.33;17.32
80682;BME280;70045;40.200;44.582;2023-10-08T09:44:24;86612.94;;;32.83;17.48
80682;BME280;70045;40.200;44.582;2023-10-08T09:47:02;86616.66;;;33.17;16.72
80682;BME280;70045;40.200;44.582;2023-10-08T09:49:32;86606.88;;;32.98;16.45
80682;BME280;70045;40.200;44.582;2023-10-08T09:52:02;86607.00;;;33.21;16.63
80682;BME280;70045;40.200;44.582;2023-10-08T09:54:31;86603.28;;;33.40;15.96
80682;BME280;70045;40.200;44.582;2023-10-08T09:57:02;86602.38;;;33.45;16.55
80682;BME280;70045;40.200;44.582;2023-10-08T09:59:28;86595.38;;;33.27;16.67
80682;BME280;70045;40.200;44.582;2023-10-08T10:01:54;86595.78;;;33.46;17.86
80682;BME280;70045;40.200;44.582;2023-10-08T10:04:23;86587.97;;;33.94;16.16
80682;BME280;70045;40.200;44.582;2023-10-08T10:06:49;86593.31;;;33.71;15.80
80682;BME280;70045;40.200;44.582;2023-10-08T10:09:22;86584.25;;;31.92;16.79
80682;BME280;70045;40.200;44.582;2023-10-08T10:11:49;86585.63;;;30.74;17.76
80682;BME280;70045;40.200;44.582;2023-10-08T10:14:14;86571.59;;;30.95;18.23
80682;BME280;70045;40.200;44.582;2023-10-08T10:16:40;86571.28;;;30.98;18.51
80682;BME280;70045;40.200;44.582;2023-10-08T10:19:05;86570.34;;;31.09;17.92
80682;BME280;70045;40.200;44.582;2023-10-08T10:21:33;86558.66;;;31.62;17.42
80682;BME280;70045;40.200;44.582;2023-10-08T10:23:59;86565.91;;;31.54;17.69
80682;BME280;70045;40.200;44.582;2023-10-08T10:26:29;86554.75;;;31.63;18.36
80682;BME280;70045;40.200;44.582;2023-10-08T10:31:51;86551.44;;;28.63;19.56
80682;BME280;70045;40.200;44.582;2023-10-08T10:34:18;86549.22;;;27.55;20.48
80682;BME280;70045;40.200;44.582;2023-10-08T10:36:45;86547.75;;;26.94;21.49
80682;BME280;70045;40.200;44.582;2023-10-08T10:39:11;86536.44;;;26.40;22.22
80682;BME280;70045;40.200;44.582;2023-10-08T10:41:37;86534.72;;;25.90;22.42
80682;BME280;70045;40.200;44.582;2023-10-08T10:44:09;86537.97;;;25.54;23.29
80682;BME280;70045;40.200;44.582;2023-10-08T10:46:34;86548.38;;;25.18;23.09
80682;BME280;70045;40.200;44.582;2023-10-08T10:49:00;86549.38;;;24.76;23.40
80682;BME280;70045;40.200;44.582;2023-10-08T10:51:25;86538.72;;;24.53;22.47
80682;BME280;70045;40.200;44.582;2023-10-08T10:53:50;86530.97;;;24.33;23.92
80682;BME280;70045;40.200;44.582;2023-10-08T10:56:19;86533.84;;;24.35;24.40
80682;BME280;70045;40.200;44.582;2023-10-08T10:58:47;86533.34;;;24.19;24.21
80682;BME280;70045;40.200;44.582;2023-10-08T11:01:12;86527.50;;;23.98;23.92
80682;BME280;70045;40.200;44.582;2023-10-08T11:03:37;86532.47;;;23.79;23.51
80682;BME280;70045;40.200;44.582;2023-10-08T11:06:03;86532.19;;;23.66;23.65
80682;BME280;70045;40.200;44.582;2023-10-08T11:08:32;86531.34;;;23.43;23.62
80682;BME280;70045;40.200;44.582;2023-10-08T11:10:58;86528.16;;;23.33;23.77
80682;BME280;70045;40.200;44.582;2023-10-08T11:13:24;86528.16;;;23.33;23.81
80682;BME280;70045;40.200;44.582;2023-10-08T11:15:50;86524.78;;;23.27;23.73
80682;BME280;70045;40.200;44.582;2023-10-08T11:18:19;86523.06;;;23.24;24.20
80682;BME280;70045;40.200;44.582;2023-10-08T11:20:49;86507.56;;;23.05;25.62
80682;BME280;70045;40.200;44.582;2023-10-08T11:23:35;86528.31;;;23.12;25.37
80682;BME280;70045;40.200;44.582;2023-10-08T11:26:02;86520.53;;;23.03;24.28
80682;BME280;70045;40.200;44.582;2023-10-08T11:28:35;86525.34;;;23.05;24.36
80682;BME280;70045;40.200;44.582;2023-10-08T11:31:04;86511.00;;;23.11;24.73
80682;BME280;70045;40.200;44.582;2023-10-08T11:33:30;86516.66;;;23.36;24.97
80682;BME280;70045;40.200;44.582;2023-10-08T11:36:01;86503.50;;;25.49;23.50
80682;BME280;70045;40.200;44.582;2023-10-08T11:38:27;86499.97;;;26.77;23.02
80682;BME280;70045;40.200;44.582;2023-10-08T11:41:13;86498.69;;;29.21;19.43
80682;BME280;70045;40.200;44.582;2023-10-08T11:43:39;86494.16;;;30.97;17.53
80682;BME280;70045;40.200;44.582;2023-10-08T11:46:04;86490.28;;;32.34;17.94
80682;BME280;70045;40.200;44.582;2023-10-08T11:48:29;86486.47;;;33.26;16.27
80682;BME280;70045;40.200;44.582;2023-10-08T11:50:55;86492.22;;;33.91;15.78
80682;BME280;70045;40.200;44.582;2023-10-08T11:53:23;86492.94;;;34.71;14.20
80682;BME280;70045;40.200;44.582;2023-10-08T11:55:48;86481.63;;;35.38;15.18
80682;BME280;70045;40.200;44.582;2023-10-08T11:58:14;86480.56;;;35.59;13.64
80682;BME280;70045;40.200;44.582;2023-10-08T12:00:41;86490.59;;;36.34;12.23
80682;BME280;70045;40.200;44.582;2023-10-08T12:03:06;86482.75;;;36.90;13.14
80682;BME280;70045;40.200;44.582;2023-10-08T12:05:35;86489.00;;;37.38;11.40
80682;BME280;70045;40.200;44.582;2023-10-08T12:08:00;86482.09;;;37.91;12.70
80682;BME280;70045;40.200;44.582;2023-10-08T12:10:26;86480.50;;;38.35;12.40
80682;BME280;70045;40.200;44.582;2023-10-08T12:12:52;86475.19;;;38.17;11.46
80682;BME280;70045;40.200;44.582;2023-10-08T12:15:21;86475.69;;;38.63;10.47
80682;BME280;70045;40.200;44.582;2023-10-08T12:17:52;86473.97;;;39.06;11.29
80682;BME280;70045;40.200;44.582;2023-10-08T12:20:17;86448.84;;;38.57;11.35
80682;BME280;70045;40.200;44.582;2023-10-08T12:22:43;86458.00;;;38.91;10.22
80682;BME280;70045;40.200;44.582;2023-10-08T12:25:08;86450.59;;;38.62;11.20
80682;BME280;70045;40.200;44.582;2023-10-08T12:27:34;86455.00;;;38.38;11.75
80682;BME280;70045;40.200;44.582;2023-10-08T12:30:03;86450.03;;;38.64;10.59
80682;BME280;70045;40.200;44.582;2023-10-08T12:32:28;86454.84;;;38.46;11.34
80682;BME280;70045;40.200;44.582;2023-10-08T12:34:54;86454.72;;;38.73;11.15
80682;BME280;70045;40.200;44.582;2023-10-08T12:37:19;86447.84;;;39.11;11.10
80682;BME280;70045;40.200;44.582;2023-10-08T12:39:44;86442.78;;;39.36;10.71
80682;BME280;70045;40.200;44.582;2023-10-08T12:42:14;86441.44;;;39.57;9.37
80682;BME280;70045;40.200;44.582;2023-10-08T12:44:39;86433.19;;;39.35;10.09
80682;BME280;70045;40.200;44.582;2023-10-08T12:47:04;86433.16;;;39.04;10.19
80682;BME280;70045;40.200;44.582;2023-10-08T12:49:30;86431.19;;;38.66;10.46
80682;BME280;70045;40.200;44.582;2023-10-08T12:51:55;86428.19;;;38.52;9.95